sensor_id;sensor_type;location;lat;lon;timestamp;temperature;humidity
3998;DHT22;61314;53.444;9.902;2022-07-01T00:02:03;20.80;99.90
3998;DHT22;61314;53.444;9.902;2022-07-01T00:04:30;20.70;99.90
3998;DHT22;61314;53.444;9.902;2022-07-01T00:06:57;20.60;99.90
3998;DHT22;61314;53.444;9.902;2022-07-01T00:09:25;20.40;99.90
3998;DHT22;61314;53.444;9.902;2022-07-01T00:11:52;20.30;99.90
3998;DHT22;61314;53.444;9.902;2022-07-01T00:14:19;20.20;99.90
3998;DHT22;61314;53.444;9.902;2022-07-01T00:16:46;20.20;99.90
3998;DHT22;61314;53.444;9.902;2022-07-01T00:19:13;20.20;99.90
3998;DHT22;61314;53.444;9.902;2022-07-01T00:21:40;20.10;99.90
3998;DHT22;61314;53.444;9.902;2022-07-01T00:24:06;20.00;99.90
3998;DHT22;61314;53.444;9.902;2022-07-01T00:26:33;20.00;99.90
3998;DHT22;61314;53.444;9.902;2022-07-01T00:29:00;19.90;99.90
3998;DHT22;61314;53.444;9.902;2022-07-01T00:31:27;19.90;99.90
3998;DHT22;61314;53.444;9.902;2022-07-01T00:33:54;19.80;99.90
3998;DHT22;61314;53.444;9.902;2022-07-01T00:36:21;19.70;99.90
3998;DHT22;61314;53.444;9.902;2022-07-01T00:38:52;19.70;99.90
3998;DHT22;61314;53.444;9.902;2022-07-01T00:41:19;19.60;99.90
3998;DHT22;61314;53.444;9.902;2022-07-01T00:43:46;19.60;99.90
3998;DHT22;61314;53.444;9.902;2022-07-01T00:46:22;19.60;99.90
3998;DHT22;61314;53.444;9.902;2022-07-01T00:48:55;19.60;99.90
3998;DHT22;61314;53.444;9.902;2022-07-01T00:51:22;19.60;99.90
3998;DHT22;61314;53.444;9.902;2022-07-01T00:53:49;19.50;99.90
3998;DHT22;61314;53.444;9.902;2022-07-01T00:56:18;19.50;99.90
3998;DHT22;61314;53.444;9.902;2022-07-01T01:01:12;19.50;99.90
3998;DHT22;61314;53.444;9.902;2022-07-01T01:03:39;19.50;99.90
3998;DHT22;61314;53.444;9.902;2022-07-01T01:06:07;19.40;99.90
3998;DHT22;61314;53.444;9.902;2022-07-01T01:08:35;19.50;99.90
3998;DHT22;61314;53.444;9.902;2022-07-01T01:13:31;19.40;99.90
3998;DHT22;61314;53.444;9.902;2022-07-01T01:15:58;19.40;99.90
3998;DHT22;61314;53.444;9.902;2022-07-01T01:18:25;19.40;99.90
3998;DHT22;61314;53.444;9.902;2022-07-01T01:20:53;19.40;99.90
3998;DHT22;61314;53.444;9.902;2022-07-01T01:23:20;19.40;99.90
3998;DHT22;61314;53.444;9.902;2022-07-01T01:25:47;19.40;99.90
3998;DHT22;61314;53.444;9.902;2022-07-01T01:28:14;19.40;99.90
3998;DHT22;61314;53.444;9.902;2022-07-01T01:30:41;19.40;99.90
3998;DHT22;61314;53.444;9.902;2022-07-01T01:35:35;19.30;99.90
3998;DHT22;61314;53.444;9.902;2022-07-01T01:40:30;19.30;99.90
3998;DHT22;61314;53.444;9.902;2022-07-01T01:42:57;19.30;99.90
3998;DHT22;61314;53.444;9.902;2022-07-01T02:00:08;19.40;99.90
3998;DHT22;61314;53.444;9.902;2022-07-01T02:02:35;19.40;99.90
3998;DHT22;61314;53.444;9.902;2022-07-01T02:05:08;19.30;99.90
3998;DHT22;61314;53.444;9.902;2022-07-01T02:07:37;19.40;99.90
3998;DHT22;61314;53.444;9.902;2022-07-01T02:10:04;19.30;99.90
3998;DHT22;61314;53.444;9.902;2022-07-01T02:12:31;19.30;99.90
3998;DHT22;61314;53.444;9.902;2022-07-01T02:14:58;19.30;99.90
3998;DHT22;61314;53.444;9.902;2022-07-01T02:17:26;19.30;99.90
3998;DHT22;61314;53.444;9.902;2022-07-01T02:19:53;19.30;99.90
3998;DHT22;61314;53.444;9.902;2022-07-01T02:22:20;19.30;99.90
3998;DHT22;61314;53.444;9.902;2022-07-01T02:24:47;19.30;99.90
3998;DHT22;61314;53.444;9.902;2022-07-01T02:27:14;19.30;99.90
3998;DHT22;61314;53.444;9.902;2022-07-01T02:29:41;19.30;99.90
3998;DHT22;61314;53.444;9.902;2022-07-01T02:32:10;19.30;99.90
3998;DHT22;61314;53.444;9.902;2022-07-01T02:34:37;19.30;99.90
3998;DHT22;61314;53.444;9.902;2022-07-01T02:37:05;19.30;99.90
3998;DHT22;61314;53.444;9.902;2022-07-01T02:39:32;19.30;99.90
3998;DHT22;61314;53.444;9.902;2022-07-01T02:42:00;19.30;99.90
3998;DHT22;61314;53.444;9.902;2022-07-01T02:44:46;19.30;99.90
3998;DHT22;61314;53.444;9.902;2022-07-01T02:47:13;19.20;99.90
3998;DHT22;61314;53.444;9.902;2022-07-01T02:49:40;19.20;99.90
3998;DHT22;61314;53.444;9.902;2022-07-01T02:52:07;19.20;99.90
3998;DHT22;61314;53.444;9.902;2022-07-01T02:54:34;19.20;99.90
3998;DHT22;61314;53.444;9.902;2022-07-01T02:57:01;19.20;99.90
3998;DHT22;61314;53.444;9.902;2022-07-01T02:59:29;19.20;99.90
3998;DHT22;61314;53.444;9.902;2022-07-01T03:01:56;19.20;99.90
3998;DHT22;61314;53.444;9.902;2022-07-01T03:04:23;19.20;99.90
3998;DHT22;61314;53.444;9.902;2022-07-01T03:06:50;19.20;99.90
3998;DHT22;61314;53.444;9.902;2022-07-01T03:09:17;19.20;99.90
3998;DHT22;61314;53.444;9.902;2022-07-01T03:11:44;19.10;99.90
3998;DHT22;61314;53.444;9.902;2022-07-01T03:14:11;19.10;99.90
3998;DHT22;61314;53.444;9.902;2022-07-01T03:16:37;19.10;99.90
3998;DHT22;61314;53.444;9.902;2022-07-01T03:19:04;19.10;99.90
3998;DHT22;61314;53.444;9.902;2022-07-01T03:21:32;19.10;99.90
3998;DHT22;61314;53.444;9.902;2022-07-01T03:24:00;19.10;99.90
3998;DHT22;61314;53.444;9.902;2022-07-01T03:26:27;19.10;99.90
3998;DHT22;61314;53.444;9.902;2022-07-01T03:41:10;19.00;99.90
3998;DHT22;61314;53.444;9.902;2022-07-01T03:43:37;18.80;99.90
3998;DHT22;61314;53.444;9.902;2022-07-01T03:46:04;18.90;99.90
3998;DHT22;61314;53.444;9.902;2022-07-01T03:48:31;18.90;99.90
3998;DHT22;61314;53.444;9.902;2022-07-01T03:50:58;18.80;99.90
3998;DHT22;61314;53.444;9.902;2022-07-01T03:53:25;18.80;99.90
3998;DHT22;61314;53.444;9.902;2022-07-01T03:56:10;18.80;99.90
3998;DHT22;61314;53.444;9.902;2022-07-01T03:58:37;18.70;99.90
3998;DHT22;61314;53.444;9.902;2022-07-01T04:01:04;18.70;99.90
3998;DHT22;61314;53.444;9.902;2022-07-01T04:03:30;18.60;99.90
3998;DHT22;61314;53.444;9.902;2022-07-01T04:05:58;18.70;99.90
3998;DHT22;61314;53.444;9.902;2022-07-01T04:08:25;18.70;99.90
3998;DHT22;61314;53.444;9.902;2022-07-01T04:10:52;18.60;99.90
3998;DHT22;61314;53.444;9.902;2022-07-01T04:13:21;18.60;99.90
3998;DHT22;61314;53.444;9.902;2022-07-01T04:15:58;18.60;99.90
3998;DHT22;61314;53.444;9.902;2022-07-01T04:26:05;18.50;99.90
3998;DHT22;61314;53.444;9.902;2022-07-01T04:28:54;18.40;99.90
3998;DHT22;61314;53.444;9.902;2022-07-01T04:31:21;18.40;99.90
3998;DHT22;61314;53.444;9.902;2022-07-01T04:33:49;18.30;99.90
3998;DHT22;61314;53.444;9.902;2022-07-01T04:36:16;18.20;99.90
3998;DHT22;61314;53.444;9.902;2022-07-01T04:38:43;18.20;99.90
3998;DHT22;61314;53.444;9.902;2022-07-01T04:41:10;18.20;99.90
3998;DHT22;61314;53.444;9.902;2022-07-01T04:43:56;18.10;99.90
3998;DHT22;61314;53.444;9.902;2022-07-01T04:46:26;18.00;99.90
3998;DHT22;61314;53.444;9.902;2022-07-01T04:48:53;18.00;99.90
3998;DHT22;61314;53.444;9.902;2022-07-01T04:51:20;17.90;99.90
3998;DHT22;61314;53.444;9.902;2022-07-01T04:58:42;17.80;99.90
3998;DHT22;61314;53.444;9.902;2022-07-01T05:01:09;17.70;99.90
3998;DHT22;61314;53.444;9.902;2022-07-01T05:03:36;17.70;99.90
3998;DHT22;61314;53.444;9.902;2022-07-01T05:06:03;17.70;99.90
3998;DHT22;61314;53.444;9.902;2022-07-01T05:10:57;17.70;99.90
3998;DHT22;61314;53.444;9.902;2022-07-01T05:15:52;17.60;99.90
3998;DHT22;61314;53.444;9.902;2022-07-01T05:18:18;17.40;99.90
3998;DHT22;61314;53.444;9.902;2022-07-01T05:21:04;17.30;99.90
3998;DHT22;61314;53.444;9.902;2022-07-01T05:23:49;17.30;99.90
3998;DHT22;61314;53.444;9.902;2022-07-01T05:26:16;17.40;99.90
3998;DHT22;61314;53.444;9.902;2022-07-01T05:28:44;17.20;99.90
3998;DHT22;61314;53.444;9.902;2022-07-01T05:31:14;17.10;99.90
3998;DHT22;61314;53.444;9.902;2022-07-01T05:33:41;17.10;99.90
3998;DHT22;61314;53.444;9.902;2022-07-01T05:36:08;17.00;99.90
3998;DHT22;61314;53.444;9.902;2022-07-01T05:38:36;16.90;99.90
3998;DHT22;61314;53.444;9.902;2022-07-01T05:41:04;16.90;99.90
3998;DHT22;61314;53.444;9.902;2022-07-01T05:43:31;16.80;99.90
3998;DHT22;61314;53.444;9.902;2022-07-01T05:45:58;16.80;99.90
3998;DHT22;61314;53.444;9.902;2022-07-01T05:48:25;16.80;99.90
3998;DHT22;61314;53.444;9.902;2022-07-01T05:50:53;16.70;99.90
3998;DHT22;61314;53.444;9.902;2022-07-01T05:53:20;16.70;99.90
3998;DHT22;61314;53.444;9.902;2022-07-01T05:55:47;16.70;99.90
3998;DHT22;61314;53.444;9.902;2022-07-01T05:58:14;16.70;99.90
3998;DHT22;61314;53.444;9.902;2022-07-01T06:00:42;16.70;99.90
3998;DHT22;61314;53.444;9.902;2022-07-01T06:03:13;16.70;99.90
3998;DHT22;61314;53.444;9.902;2022-07-01T06:05:41;16.60;99.90
3998;DHT22;61314;53.444;9.902;2022-07-01T06:08:09;16.60;99.90
3998;DHT22;61314;53.444;9.902;2022-07-01T06:10:36;16.60;99.90
3998;DHT22;61314;53.444;9.902;2022-07-01T06:13:03;16.60;99.90
3998;DHT22;61314;53.444;9.902;2022-07-01T06:15:30;16.60;99.90
3998;DHT22;61314;53.444;9.902;2022-07-01T06:22:52;16.60;99.90
3998;DHT22;61314;53.444;9.902;2022-07-01T06:25:19;16.50;99.90
3998;DHT22;61314;53.444;9.902;2022-07-01T06:27:46;16.40;99.90
3998;DHT22;61314;53.444;9.902;2022-07-01T06:30:13;16.40;99.90
3998;DHT22;61314;53.444;9.902;2022-07-01T06:32:40;16.40;99.90
3998;DHT22;61314;53.444;9.902;2022-07-01T06:35:08;16.40;99.90
3998;DHT22;61314;53.444;9.902;2022-07-01T06:37:35;16.40;99.90
3998;DHT22;61314;53.444;9.902;2022-07-01T06:40:04;16.30;99.90
3998;DHT22;61314;53.444;9.902;2022-07-01T06:45:00;16.30;99.90
3998;DHT22;61314;53.444;9.902;2022-07-01T06:49:55;16.20;99.90
3998;DHT22;61314;53.444;9.902;2022-07-01T06:52:29;16.20;99.90
3998;DHT22;61314;53.444;9.902;2022-07-01T07:12:24;16.10;99.90
3998;DHT22;61314;53.444;9.902;2022-07-01T07:14:51;16.10;99.90
3998;DHT22;61314;53.444;9.902;2022-07-01T07:17:18;15.90;99.90
3998;DHT22;61314;53.444;9.902;2022-07-01T07:19:45;16.20;99.90
3998;DHT22;61314;53.444;9.902;2022-07-01T07:22:12;16.20;99.90
3998;DHT22;61314;53.444;9.902;2022-07-01T07:24:39;16.20;99.90
3998;DHT22;61314;53.444;9.902;2022-07-01T07:27:07;16.20;99.90
3998;DHT22;61314;53.444;9.902;2022-07-01T07:29:34;16.30;99.90
3998;DHT22;61314;53.444;9.902;2022-07-01T07:32:00;16.30;99.90
3998;DHT22;61314;53.444;9.902;2022-07-01T07:34:27;16.30;99.90
3998;DHT22;61314;53.444;9.902;2022-07-01T07:36:56;16.30;99.90
3998;DHT22;61314;53.444;9.902;2022-07-01T07:39:23;16.30;99.90
3998;DHT22;61314;53.444;9.902;2022-07-01T07:41:55;16.30;99.90
3998;DHT22;61314;53.444;9.902;2022-07-01T07:44:22;16.30;99.90
3998;DHT22;61314;53.444;9.902;2022-07-01T07:46:49;16.30;99.90
3998;DHT22;61314;53.444;9.902;2022-07-01T07:49:19;16.30;99.90
3998;DHT22;61314;53.444;9.902;2022-07-01T07:51:46;16.30;99.90
3998;DHT22;61314;53.444;9.902;2022-07-01T07:54:13;16.30;99.90
3998;DHT22;61314;53.444;9.902;2022-07-01T07:56:40;16.30;99.90
3998;DHT22;61314;53.444;9.902;2022-07-01T07:59:14;16.40;99.90
3998;DHT22;61314;53.444;9.902;2022-07-01T08:01:41;16.40;99.90
3998;DHT22;61314;53.444;9.902;2022-07-01T08:04:08;16.40;99.90
3998;DHT22;61314;53.444;9.902;2022-07-01T08:06:35;16.40;99.90
3998;DHT22;61314;53.444;9.902;2022-07-01T08:09:03;16.50;99.90
3998;DHT22;61314;53.444;9.902;2022-07-01T08:11:30;16.40;99.90
3998;DHT22;61314;53.444;9.902;2022-07-01T08:13:57;16.40;99.90
3998;DHT22;61314;53.444;9.902;2022-07-01T08:16:25;16.50;99.90
3998;DHT22;61314;53.444;9.902;2022-07-01T08:18:52;16.50;99.90
3998;DHT22;61314;53.444;9.902;2022-07-01T08:21:21;16.50;99.90
3998;DHT22;61314;53.444;9.902;2022-07-01T08:23:48;16.50;99.90
3998;DHT22;61314;53.444;9.902;2022-07-01T08:26:15;16.50;99.90
3998;DHT22;61314;53.444;9.902;2022-07-01T08:28:43;16.50;99.90
3998;DHT22;61314;53.444;9.902;2022-07-01T08:31:11;16.50;99.90
3998;DHT22;61314;53.444;9.902;2022-07-01T08:33:38;16.60;99.90
3998;DHT22;61314;53.444;9.902;2022-07-01T08:36:06;16.50;99.90
3998;DHT22;61314;53.444;9.902;2022-07-01T08:38:34;16.60;99.90
3998;DHT22;61314;53.444;9.902;2022-07-01T08:41:02;16.60;99.90
3998;DHT22;61314;53.444;9.902;2022-07-01T08:43:30;16.60;99.90
3998;DHT22;61314;53.444;9.902;2022-07-01T08:45:59;16.60;99.90
3998;DHT22;61314;53.444;9.902;2022-07-01T08:48:30;16.60;99.90
3998;DHT22;61314;53.444;9.902;2022-07-01T08:50:57;16.70;99.90
3998;DHT22;61314;53.444;9.902;2022-07-01T08:53:24;16.60;99.90
3998;DHT22;61314;53.444;9.902;2022-07-01T08:55:51;16.70;99.90
3998;DHT22;61314;53.444;9.902;2022-07-01T08:58:37;16.70;99.90
3998;DHT22;61314;53.444;9.902;2022-07-01T09:01:21;16.60;99.90
3998;DHT22;61314;53.444;9.902;2022-07-01T09:03:50;16.70;99.90
3998;DHT22;61314;53.444;9.902;2022-07-01T09:06:31;16.70;99.90
3998;DHT22;61314;53.444;9.902;2022-07-01T09:09:11;16.70;99.90
3998;DHT22;61314;53.444;9.902;2022-07-01T09:11:45;16.80;99.90
3998;DHT22;61314;53.444;9.902;2022-07-01T09:14:15;16.80;99.90
3998;DHT22;61314;53.444;9.902;2022-07-01T09:17:20;16.70;99.90
3998;DHT22;61314;53.444;9.902;2022-07-01T09:19:39;16.80;99.90
3998;DHT22;61314;53.444;9.902;2022-07-01T09:22:14;16.90;99.90
3998;DHT22;61314;53.444;9.902;2022-07-01T09:24:42;16.80;99.90
3998;DHT22;61314;53.444;9.902;2022-07-01T09:27:12;16.80;99.90
3998;DHT22;61314;53.444;9.902;2022-07-01T09:29:52;16.80;99.90
3998;DHT22;61314;53.444;9.902;2022-07-01T09:32:22;16.60;99.90
3998;DHT22;61314;53.444;9.902;2022-07-01T09:34:53;16.70;99.90
3998;DHT22;61314;53.444;9.902;2022-07-01T09:37:24;16.70;99.90
3998;DHT22;61314;53.444;9.902;2022-07-01T09:39:56;16.70;99.90
3998;DHT22;61314;53.444;9.902;2022-07-01T09:42:26;16.70;99.90
3998;DHT22;61314;53.444;9.902;2022-07-01T09:45:04;16.70;99.90
3998;DHT22;61314;53.444;9.902;2022-07-01T09:47:40;16.80;99.90
3998;DHT22;61314;53.444;9.902;2022-07-01T09:50:08;16.80;99.90
3998;DHT22;61314;53.444;9.902;2022-07-01T09:52:36;16.80;99.90
3998;DHT22;61314;53.444;9.902;2022-07-01T09:55:08;16.80;99.90
3998;DHT22;61314;53.444;9.902;2022-07-01T09:57:35;16.90;99.90
3998;DHT22;61314;53.444;9.902;2022-07-01T10:00:04;16.90;99.90
3998;DHT22;61314;53.444;9.902;2022-07-01T10:02:33;16.90;99.90
3998;DHT22;61314;53.444;9.902;2022-07-01T12:05:29;16.90;99.90
3998;DHT22;61314;53.444;9.902;2022-07-01T12:08:03;17.20;99.90
3998;DHT22;61314;53.444;9.902;2022-07-01T12:10:31;17.30;99.90
3998;DHT22;61314;53.444;9.902;2022-07-01T12:12:59;17.20;99.90
3998;DHT22;61314;53.444;9.902;2022-07-01T12:15:34;17.60;99.90
3998;DHT22;61314;53.444;9.902;2022-07-01T12:18:06;17.30;99.90
3998;DHT22;61314;53.444;9.902;2022-07-01T12:20:35;17.30;99.90
3998;DHT22;61314;53.444;9.902;2022-07-01T12:31:08;17.40;99.90
3998;DHT22;61314;53.444;9.902;2022-07-01T12:33:49;17.60;99.90
3998;DHT22;61314;53.444;9.902;2022-07-01T12:36:16;17.60;99.90
3998;DHT22;61314;53.444;9.902;2022-07-01T12:41:31;17.70;99.90
3998;DHT22;61314;53.444;9.902;2022-07-01T12:44:28;17.80;99.90
3998;DHT22;61314;53.444;9.902;2022-07-01T12:46:56;17.90;99.90
3998;DHT22;61314;53.444;9.902;2022-07-01T13:01:56;17.90;99.90
3998;DHT22;61314;53.444;9.902;2022-07-01T13:04:28;18.40;99.90
3998;DHT22;61314;53.444;9.902;2022-07-01T13:11:50;18.60;99.90
3998;DHT22;61314;53.444;9.902;2022-07-01T13:14:17;18.80;99.90
3998;DHT22;61314;53.444;9.902;2022-07-01T17:59:51;20.30;99.90
3998;DHT22;61314;53.444;9.902;2022-07-01T18:32:41;19.70;99.90
3998;DHT22;61314;53.444;9.902;2022-07-01T18:40:18;19.00;99.90
3998;DHT22;61314;53.444;9.902;2022-07-01T18:42:45;18.80;99.90
3998;DHT22;61314;53.444;9.902;2022-07-01T18:45:12;18.70;99.90
3998;DHT22;61314;53.444;9.902;2022-07-01T18:47:40;18.60;99.90
3998;DHT22;61314;53.444;9.902;2022-07-01T19:44:25;18.50;99.90
3998;DHT22;61314;53.444;9.902;2022-07-01T19:49:19;17.20;99.90
3998;DHT22;61314;53.444;9.902;2022-07-01T19:51:46;17.30;99.90
3998;DHT22;61314;53.444;9.902;2022-07-01T19:54:13;17.30;99.90
3998;DHT22;61314;53.444;9.902;2022-07-01T19:59:08;17.30;99.90
3998;DHT22;61314;53.444;9.902;2022-07-01T20:11:24;16.90;99.90
3998;DHT22;61314;53.444;9.902;2022-07-01T20:23:47;16.70;99.90
3998;DHT22;61314;53.444;9.902;2022-07-01T20:38:40;16.50;99.90
3998;DHT22;61314;53.444;9.902;2022-07-01T20:50:56;16.10;99.90
3998;DHT22;61314;53.444;9.902;2022-07-01T20:53:23;16.10;99.90
3998;DHT22;61314;53.444;9.902;2022-07-01T20:55:50;16.00;99.90
3998;DHT22;61314;53.444;9.902;2022-07-01T21:00:44;15.90;99.90
3998;DHT22;61314;53.444;9.902;2022-07-01T21:03:11;15.80;99.90
3998;DHT22;61314;53.444;9.902;2022-07-01T21:08:05;15.80;99.90
3998;DHT22;61314;53.444;9.902;2022-07-01T21:10:32;15.60;99.90
3998;DHT22;61314;53.444;9.902;2022-07-01T21:12:59;15.60;99.90
3998;DHT22;61314;53.444;9.902;2022-07-01T21:17:54;15.60;99.90
3998;DHT22;61314;53.444;9.902;2022-07-01T21:20:21;15.50;99.90
3998;DHT22;61314;53.444;9.902;2022-07-01T21:22:49;15.40;99.90
3998;DHT22;61314;53.444;9.902;2022-07-01T21:25:16;15.40;99.90
3998;DHT22;61314;53.444;9.902;2022-07-01T21:27:43;15.40;99.90
3998;DHT22;61314;53.444;9.902;2022-07-01T21:30:10;15.30;99.90
3998;DHT22;61314;53.444;9.902;2022-07-01T21:32:37;15.30;99.90
3998;DHT22;61314;53.444;9.902;2022-07-01T21:35:05;15.20;99.90
3998;DHT22;61314;53.444;9.902;2022-07-01T21:37:32;15.10;99.90
3998;DHT22;61314;53.444;9.902;2022-07-01T21:39:59;15.20;99.90
3998;DHT22;61314;53.444;9.902;2022-07-01T21:42:26;15.10;99.90
3998;DHT22;61314;53.444;9.902;2022-07-01T21:44:54;15.10;99.90
3998;DHT22;61314;53.444;9.902;2022-07-01T21:54:47;15.00;99.90
3998;DHT22;61314;53.444;9.902;2022-07-01T21:57:17;14.80;99.90
3998;DHT22;61314;53.444;9.902;2022-07-01T21:59:44;14.80;99.90
3998;DHT22;61314;53.444;9.902;2022-07-01T22:02:11;14.80;99.90
3998;DHT22;61314;53.444;9.902;2022-07-01T22:04:39;14.80;99.90
3998;DHT22;61314;53.444;9.902;2022-07-01T22:07:08;14.80;99.90
3998;DHT22;61314;53.444;9.902;2022-07-01T22:09:36;14.80;99.90
3998;DHT22;61314;53.444;9.902;2022-07-01T23:40:25;13.90;99.90
